createdAt,value
2022-12-14T00:01:57.285Z,94.70
2022-12-14T00:04:25.301Z,94.60
2022-12-14T00:06:54.684Z,94.70
2022-12-14T00:09:22.835Z,94.80
2022-12-14T00:11:50.854Z,94.80
2022-12-14T00:14:18.865Z,94.80
2022-12-14T00:16:46.886Z,94.80
2022-12-14T00:19:15.589Z,94.70
2022-12-14T00:21:43.593Z,94.80
2022-12-14T00:24:12.958Z,94.80
2022-12-14T00:26:41.005Z,94.90
2022-12-14T00:29:09.006Z,94.90
2022-12-14T00:31:37.365Z,94.90
2022-12-14T00:34:05.453Z,95.10
2022-12-14T00:36:33.490Z,94.90
2022-12-14T00:39:01.487Z,94.80
2022-12-14T00:41:30.876Z,94.70
2022-12-14T00:43:58.879Z,94.60
2022-12-14T00:46:26.900Z,94.60
2022-12-14T00:48:54.934Z,94.80
2022-12-14T00:51:23.296Z,94.90
2022-12-14T00:53:51.358Z,95.00
2022-12-14T00:56:19.455Z,95.00
2022-12-14T00:58:52.772Z,94.90
2022-12-14T01:01:22.223Z,94.80
2022-12-14T01:03:50.817Z,94.80
2022-12-14T01:06:20.869Z,94.60
2022-12-14T01:08:49.428Z,94.70
2022-12-14T01:11:17.494Z,94.80
2022-12-14T01:13:49.109Z,94.80
2022-12-14T01:16:19.025Z,94.90
2022-12-14T01:18:47.316Z,94.70
2022-12-14T01:21:17.349Z,94.80
2022-12-14T01:23:46.770Z,94.90
2022-12-14T01:26:17.024Z,94.90
2022-12-14T01:28:45.957Z,95.00
2022-12-14T01:31:16.624Z,94.90
2022-12-14T01:33:46.481Z,94.80
2022-12-14T01:36:16.258Z,94.40
2022-12-14T01:38:44.544Z,94.50
2022-12-14T01:41:24.476Z,94.40
2022-12-14T01:43:54.726Z,94.30
2022-12-14T01:46:27.898Z,94.20
2022-12-14T01:49:03.096Z,94.20
2022-12-14T01:51:33.551Z,94.10
2022-12-14T01:54:03.056Z,94.10
2022-12-14T01:56:32.386Z,94.20
2022-12-14T01:59:05.482Z,94.00
2022-12-14T02:01:33.990Z,93.90
2022-12-14T02:04:05.432Z,93.90
2022-12-14T02:06:36.184Z,93.80
2022-12-14T02:09:06.803Z,93.80
2022-12-14T02:11:45.129Z,93.70
2022-12-14T02:14:13.131Z,93.60
2022-12-14T02:16:42.075Z,93.60
2022-12-14T02:19:11.652Z,93.60
2022-12-14T02:22:02.194Z,93.50
2022-12-14T02:25:01.466Z,93.50
2022-12-14T02:28:04.438Z,93.50
2022-12-14T02:30:38.208Z,93.30
2022-12-14T02:33:21.857Z,93.30
2022-12-14T02:35:54.301Z,93.20
2022-12-14T02:38:42.195Z,93.40
2022-12-14T02:41:16.305Z,93.30
2022-12-14T02:43:51.748Z,93.30
2022-12-14T02:46:27.172Z,93.30
2022-12-14T02:49:00.302Z,93.50
2022-12-14T02:51:39.316Z,93.50
2022-12-14T02:54:13.303Z,93.40
2022-12-14T02:56:46.269Z,93.40
2022-12-14T02:59:17.048Z,93.30
2022-12-14T03:01:48.716Z,93.10
2022-12-14T03:04:17.685Z,93.10
2022-12-14T03:06:57.806Z,93.00
2022-12-14T03:09:28.317Z,93.10
2022-12-14T03:11:59.599Z,93.10
2022-12-14T03:14:32.105Z,93.20
2022-12-14T03:17:05.762Z,93.20
2022-12-14T03:19:39.469Z,93.20
2022-12-14T03:22:10.510Z,93.10
2022-12-14T03:24:42.740Z,93.20
2022-12-14T03:27:16.553Z,93.30
2022-12-14T03:29:48.517Z,93.40
2022-12-14T03:32:20.937Z,93.30
2022-12-14T03:34:53.858Z,93.30
2022-12-14T03:37:27.570Z,93.20
2022-12-14T03:39:55.624Z,93.30
2022-12-14T03:42:26.793Z,93.40
2022-12-14T03:45:02.092Z,93.30
2022-12-14T03:47:54.788Z,93.20
2022-12-14T03:50:25.962Z,93.40
2022-12-14T03:52:59.852Z,93.50
2022-12-14T03:55:33.126Z,93.50
2022-12-14T03:58:14.043Z,93.50
2022-12-14T04:00:48.985Z,93.30
2022-12-14T04:03:27.277Z,93.50
2022-12-14T04:06:00.346Z,93.30
2022-12-14T04:08:34.924Z,93.40
2022-12-14T04:11:23.413Z,93.40
2022-12-14T04:14:16.778Z,93.30
2022-12-14T04:17:05.201Z,93.40
2022-12-14T04:19:40.796Z,93.50
2022-12-14T04:22:12.471Z,93.20
2022-12-14T04:25:04.346Z,93.10
2022-12-14T04:27:36.284Z,93.30
2022-12-14T04:30:06.099Z,93.10
2022-12-14T04:32:38.025Z,93.10
2022-12-14T04:35:13.100Z,93.10
2022-12-14T04:37:45.285Z,93.20
2022-12-14T04:40:20.011Z,93.10
2022-12-14T04:42:53.543Z,92.80
2022-12-14T04:45:27.697Z,92.70
2022-12-14T04:48:01.374Z,92.90
2022-12-14T04:50:36.432Z,93.20
2022-12-14T04:53:11.513Z,93.40
2022-12-14T04:55:44.651Z,93.10
2022-12-14T04:58:17.799Z,93.10
2022-12-14T05:00:59.379Z,93.20
2022-12-14T05:03:32.290Z,93.30
2022-12-14T05:06:09.644Z,93.20
2022-12-14T05:08:56.684Z,93.30
2022-12-14T05:14:22.150Z,93.50
2022-12-14T05:16:50.972Z,93.00
2022-12-14T05:19:19.143Z,93.10
2022-12-14T05:21:48.525Z,93.10
2022-12-14T05:24:17.682Z,93.20
2022-12-14T05:26:46.120Z,93.10
2022-12-14T05:29:14.971Z,93.40
2022-12-14T05:31:43.029Z,93.30
2022-12-14T05:34:17.757Z,93.50
2022-12-14T05:36:45.819Z,93.40
2022-12-14T05:39:16.073Z,93.00
2022-12-14T05:41:44.391Z,92.90
2022-12-14T05:44:12.506Z,93.00
2022-12-14T05:46:40.538Z,93.00
2022-12-14T05:49:08.628Z,92.90
2022-12-14T05:51:36.651Z,92.90
2022-12-14T05:54:05.311Z,92.70
2022-12-14T05:56:34.642Z,92.70
2022-12-14T05:59:03.479Z,93.10
2022-12-14T06:01:31.750Z,93.20
2022-12-14T06:03:59.955Z,93.10
2022-12-14T06:06:28.080Z,93.30
2022-12-14T06:08:56.325Z,93.20
2022-12-14T06:11:24.750Z,93.00
2022-12-14T06:13:54.136Z,93.20
2022-12-14T06:16:23.952Z,93.30
2022-12-14T06:18:53.693Z,93.40
2022-12-14T06:21:24.126Z,93.30
2022-12-14T06:23:52.311Z,93.00
2022-12-14T06:26:20.430Z,93.10
2022-12-14T06:28:48.503Z,93.10
2022-12-14T06:31:19.944Z,93.20
2022-12-14T06:33:48.286Z,93.30
2022-12-14T06:36:19.720Z,93.20
2022-12-14T06:38:48.009Z,93.60
2022-12-14T06:41:16.030Z,93.30
2022-12-14T06:43:44.249Z,93.00
2022-12-14T06:46:15.713Z,92.90
2022-12-14T06:48:49.527Z,92.90
2022-12-14T06:51:18.092Z,92.80
2022-12-14T06:53:46.316Z,92.90
2022-12-14T06:56:17.504Z,93.10
2022-12-14T06:58:46.428Z,93.10
2022-12-14T07:01:17.578Z,93.20
2022-12-14T07:03:49.673Z,93.20
2022-12-14T07:06:18.450Z,93.30
2022-12-14T07:08:46.592Z,93.20
2022-12-14T07:11:16.980Z,93.20
2022-12-14T07:13:45.140Z,92.90
2022-12-14T07:16:19.123Z,92.90
2022-12-14T07:18:48.760Z,92.90
2022-12-14T07:21:18.185Z,92.80
2022-12-14T07:23:47.446Z,92.80
2022-12-14T07:26:17.388Z,92.80
2022-12-14T07:28:46.174Z,93.00
2022-12-14T07:31:16.355Z,93.10
2022-12-14T07:33:44.453Z,92.90
2022-12-14T07:36:15.755Z,93.00
2022-12-14T07:38:45.652Z,93.00
2022-12-14T07:41:20.407Z,93.20
2022-12-14T07:43:50.373Z,93.20
2022-12-14T07:46:20.555Z,93.20
2022-12-14T07:48:50.618Z,93.40
2022-12-14T07:51:22.238Z,93.30
2022-12-14T07:53:51.006Z,93.20
2022-12-14T07:56:21.562Z,93.10
2022-12-14T07:58:49.751Z,93.20
2022-12-14T08:01:19.642Z,93.20
2022-12-14T08:03:49.232Z,93.30
2022-12-14T08:06:20.009Z,93.30
2022-12-14T08:08:49.218Z,93.20
2022-12-14T08:11:17.979Z,92.80
2022-12-14T08:13:46.835Z,93.00
2022-12-14T08:16:16.793Z,93.20
2022-12-14T08:18:45.192Z,93.20
2022-12-14T08:21:15.384Z,93.20
2022-12-14T08:23:44.752Z,93.10
2022-12-14T08:26:12.778Z,92.80
2022-12-14T08:28:40.916Z,93.00
2022-12-14T08:31:10.635Z,93.30
2022-12-14T08:33:40.028Z,93.60
2022-12-14T08:36:10.694Z,94.40
2022-12-14T08:38:38.954Z,94.40
2022-12-14T08:41:10.409Z,94.50
2022-12-14T08:43:39.028Z,94.50
2022-12-14T08:46:08.449Z,94.80
2022-12-14T08:48:36.627Z,95.00
2022-12-14T08:51:06.056Z,95.30
2022-12-14T08:53:34.551Z,95.20
2022-12-14T08:56:05.838Z,95.40
2022-12-14T08:58:35.507Z,95.30
2022-12-14T09:01:04.567Z,95.50
2022-12-14T09:03:33.451Z,95.90
2022-12-14T09:06:05.444Z,95.80
2022-12-14T09:08:34.002Z,95.60
2022-12-14T09:11:02.691Z,96.00
2022-12-14T09:13:31.403Z,96.40
2022-12-14T09:16:02.984Z,96.40
2022-12-14T09:18:34.406Z,96.30
2022-12-14T09:21:02.741Z,96.30
2022-12-14T09:23:32.953Z,96.40
2022-12-14T09:26:03.151Z,96.50
2022-12-14T09:28:31.919Z,96.60
2022-12-14T09:31:02.963Z,96.60
2022-12-14T09:33:31.700Z,96.80
2022-12-14T09:36:03.917Z,96.90
2022-12-14T09:38:33.799Z,96.90
2022-12-14T09:41:07.189Z,97.00
2022-12-14T09:43:43.419Z,97.00
2022-12-14T09:46:23.925Z,97.00
2022-12-14T09:48:53.070Z,97.10
2022-12-14T09:51:22.888Z,97.20
2022-12-14T09:54:02.176Z,97.30
2022-12-14T09:56:31.125Z,97.40
2022-12-14T09:59:01.910Z,97.40
2022-12-14T10:02:28.991Z,97.60
2022-12-14T10:04:53.507Z,97.60
2022-12-14T10:07:34.242Z,97.70
2022-12-14T10:10:10.700Z,97.80
2022-12-14T10:12:50.532Z,97.70
2022-12-14T10:15:28.213Z,97.80
2022-12-14T10:18:57.016Z,97.70
2022-12-14T10:21:13.907Z,97.60
2022-12-14T10:23:48.247Z,97.70
2022-12-14T10:26:20.339Z,97.60
2022-12-14T10:29:00.908Z,97.60
2022-12-14T10:31:34.520Z,97.60
2022-12-14T10:34:13.566Z,97.70
2022-12-14T10:36:52.351Z,97.70
2022-12-14T10:39:27.404Z,97.90
2022-12-14T10:42:03.746Z,97.80
2022-12-14T10:44:39.979Z,97.90
2022-12-14T10:47:16.894Z,97.70
2022-12-14T10:49:54.890Z,97.80
2022-12-14T10:52:27.162Z,97.70
2022-12-14T10:54:59.877Z,97.50
2022-12-14T10:57:29.378Z,97.40
2022-12-14T11:00:08.589Z,97.40
2022-12-14T11:02:42.376Z,97.30
2022-12-14T11:05:35.769Z,97.30
2022-12-14T11:08:06.661Z,97.20
2022-12-14T11:10:36.061Z,97.30
2022-12-14T11:13:07.044Z,97.10
2022-12-14T11:15:37.700Z,97.10
2022-12-14T11:18:17.493Z,97.00
2022-12-14T11:20:52.056Z,97.00
2022-12-14T11:23:22.451Z,97.00
2022-12-14T11:25:52.554Z,97.10
2022-12-14T11:28:35.941Z,97.00
2022-12-14T11:31:07.757Z,96.90
2022-12-14T11:33:39.759Z,97.10
2022-12-14T11:36:10.230Z,97.10
2022-12-14T11:38:38.288Z,96.90
2022-12-14T11:41:11.569Z,96.90
2022-12-14T11:43:41.160Z,97.10
2022-12-14T11:46:09.444Z,96.90
2022-12-14T11:48:39.222Z,96.90
2022-12-14T11:51:13.693Z,96.90
2022-12-14T11:53:42.398Z,97.00
2022-12-14T11:56:15.908Z,96.90
2022-12-14T11:58:51.003Z,96.70
2022-12-14T12:01:25.207Z,96.70
2022-12-14T12:03:56.830Z,96.90
2022-12-14T12:06:28.551Z,96.70
2022-12-14T12:08:59.443Z,96.70
2022-12-14T12:11:31.898Z,96.80
2022-12-14T12:14:02.655Z,96.80
2022-12-14T12:16:33.068Z,96.70
2022-12-14T12:19:11.868Z,96.70
2022-12-14T12:21:44.623Z,96.70
2022-12-14T12:24:19.374Z,96.60
2022-12-14T12:26:51.192Z,96.80
2022-12-14T12:29:25.086Z,96.50
2022-12-14T12:31:57.547Z,96.40
2022-12-14T12:34:29.802Z,96.40
2022-12-14T12:37:25.788Z,96.60
2022-12-14T12:39:58.459Z,96.30
2022-12-14T12:42:37.920Z,96.20
2022-12-14T12:45:13.961Z,96.10
2022-12-14T12:47:47.536Z,96.20
2022-12-14T12:50:18.559Z,96.00
2022-12-14T12:53:02.397Z,96.00
2022-12-14T12:55:35.438Z,95.90
2022-12-14T12:58:09.669Z,95.90
2022-12-14T13:00:41.112Z,95.70
2022-12-14T13:03:14.365Z,95.90
2022-12-14T13:05:46.770Z,95.90
2022-12-14T13:08:23.151Z,96.10
2022-12-14T13:13:43.955Z,95.80
2022-12-14T13:16:16.244Z,96.00
2022-12-14T13:19:01.839Z,95.80
2022-12-14T13:21:44.116Z,95.80
2022-12-14T13:24:21.425Z,95.60
2022-12-14T13:27:17.756Z,95.70
2022-12-14T13:30:04.450Z,95.40
2022-12-14T13:32:43.323Z,95.70
2022-12-14T13:35:26.703Z,95.90
2022-12-14T13:38:33.404Z,96.20
2022-12-14T13:41:20.830Z,96.10
2022-12-14T13:44:02.473Z,96.10
2022-12-14T13:46:31.454Z,96.20
2022-12-14T13:49:03.760Z,96.50
2022-12-14T13:51:35.420Z,96.70
2022-12-14T13:54:07.319Z,96.80
2022-12-14T13:56:40.119Z,96.90
2022-12-14T13:59:25.710Z,96.60
2022-12-14T14:01:57.939Z,96.60
2022-12-14T14:04:28.529Z,96.80
2022-12-14T14:06:57.943Z,96.70
2022-12-14T14:10:00.298Z,96.90
2022-12-14T14:12:44.878Z,96.40
2022-12-14T14:15:31.358Z,96.70
2022-12-14T14:18:13.368Z,96.50
2022-12-14T14:20:42.958Z,96.60
2022-12-14T14:23:35.677Z,96.70
2022-12-14T14:26:26.159Z,96.50
2022-12-14T14:29:24.824Z,96.50
2022-12-14T14:31:56.575Z,96.50
2022-12-14T14:34:46.130Z,96.60
2022-12-14T14:37:26.814Z,96.40
2022-12-14T14:40:25.940Z,96.40
2022-12-14T14:43:05.691Z,96.60
2022-12-14T14:45:48.577Z,96.50
2022-12-14T14:48:33.780Z,96.40
2022-12-14T14:51:15.461Z,96.50
2022-12-14T14:53:44.014Z,96.60
2022-12-14T14:56:37.079Z,96.80
2022-12-14T14:59:51.480Z,96.60
2022-12-14T15:02:34.628Z,96.60
2022-12-14T15:05:33.287Z,96.60
2022-12-14T15:07:55.906Z,96.70
2022-12-14T15:10:32.105Z,96.90
2022-12-14T15:13:03.676Z,96.90
2022-12-14T15:15:37.839Z,96.80
2022-12-14T15:18:22.880Z,96.50
2022-12-14T15:21:02.823Z,96.60
2022-12-14T15:23:36.425Z,96.40
2022-12-14T15:26:16.353Z,96.30
2022-12-14T15:28:48.604Z,96.30
2022-12-14T15:31:16.798Z,96.10
2022-12-14T15:33:48.893Z,96.20
2022-12-14T15:36:19.043Z,96.20
2022-12-14T15:38:55.223Z,96.10
2022-12-14T15:41:24.766Z,96.20
2022-12-14T15:43:58.193Z,96.20
2022-12-14T15:46:30.252Z,96.20
2022-12-14T15:49:01.409Z,96.00
2022-12-14T15:51:33.187Z,95.90
2022-12-14T15:54:04.170Z,95.90
2022-12-14T15:56:34.817Z,96.00
2022-12-14T15:59:05.254Z,95.90
2022-12-14T16:01:38.479Z,96.00
2022-12-14T16:04:15.267Z,96.10
2022-12-14T16:06:49.373Z,96.10
2022-12-14T16:09:24.685Z,96.00
2022-12-14T16:11:56.267Z,95.90
2022-12-14T16:14:27.106Z,95.70
2022-12-14T16:16:55.548Z,95.70
2022-12-14T16:19:29.045Z,95.70
2022-12-14T16:22:14.250Z,96.00
2022-12-14T16:25:16.681Z,95.90
2022-12-14T16:27:50.041Z,95.90
2022-12-14T16:30:22.799Z,95.70
2022-12-14T16:32:52.936Z,95.90
2022-12-14T16:35:26.085Z,95.90
2022-12-14T16:37:56.384Z,95.90
2022-12-14T16:40:34.526Z,95.80
2022-12-14T16:43:02.890Z,95.50
2022-12-14T16:46:11.944Z,95.70
2022-12-14T16:48:43.386Z,95.60
2022-12-14T16:52:06.332Z,95.50
2022-12-14T16:54:32.620Z,95.70
2022-12-14T16:57:04.071Z,95.70
2022-12-14T16:59:40.610Z,95.80
2022-12-14T17:02:26.089Z,95.70
2022-12-14T17:04:54.783Z,95.60
2022-12-14T17:07:27.131Z,95.60
2022-12-14T17:09:56.340Z,95.40
2022-12-14T17:12:26.001Z,95.30
2022-12-14T17:14:54.407Z,95.60
2022-12-14T17:17:29.160Z,96.00
2022-12-14T17:19:57.239Z,95.90
2022-12-14T17:22:30.847Z,95.90
2022-12-14T17:24:59.290Z,95.70
2022-12-14T17:27:27.817Z,95.60
2022-12-14T17:29:57.172Z,95.50
2022-12-14T17:32:29.541Z,95.60
2022-12-14T17:34:57.976Z,95.40
2022-12-14T17:37:34.149Z,95.30
2022-12-14T17:40:05.346Z,95.40
2022-12-14T17:42:33.470Z,95.20
2022-12-14T17:45:01.866Z,95.20
2022-12-14T17:47:29.945Z,95.20
2022-12-14T17:49:57.949Z,95.40
2022-12-14T17:52:31.674Z,95.50
2022-12-14T17:54:59.864Z,95.50
2022-12-14T17:57:27.978Z,95.30
2022-12-14T18:00:16.057Z,95.30
2022-12-14T18:02:45.689Z,95.20
2022-12-14T18:05:19.677Z,95.30
2022-12-14T18:07:49.831Z,95.30
2022-12-14T18:10:19.419Z,95.20
2022-12-14T18:12:47.467Z,95.30
2022-12-14T18:15:19.267Z,95.20
2022-12-14T18:17:49.403Z,95.40
2022-12-14T18:20:19.167Z,95.20
2022-12-14T18:22:50.165Z,95.10
2022-12-14T18:25:28.305Z,95.20
2022-12-14T18:27:57.230Z,95.40
2022-12-14T18:30:25.587Z,95.30
2022-12-14T18:32:53.646Z,95.20
2022-12-14T18:35:24.228Z,95.30
2022-12-14T18:37:53.729Z,95.30
2022-12-14T18:40:24.741Z,95.40
2022-12-14T18:42:52.843Z,95.10
2022-12-14T18:45:23.187Z,94.90
2022-12-14T18:47:51.550Z,94.90
2022-12-14T18:50:20.110Z,95.00
2022-12-14T18:52:48.619Z,95.20
2022-12-14T18:55:20.324Z,95.10
2022-12-14T18:57:50.094Z,95.30
2022-12-14T19:00:21.462Z,95.30
2022-12-14T19:02:50.307Z,95.00
2022-12-14T19:05:25.641Z,95.00
2022-12-14T19:07:54.837Z,95.20
2022-12-14T19:10:26.386Z,95.10
2022-12-14T19:12:54.867Z,95.20
2022-12-14T19:15:24.593Z,95.20
2022-12-14T19:17:53.271Z,95.10
2022-12-14T19:20:22.360Z,95.20
2022-12-14T19:22:51.575Z,95.50
2022-12-14T19:25:20.652Z,95.20
2022-12-14T19:30:40.634Z,95.00
2022-12-14T19:33:08.675Z,94.90
2022-12-14T19:35:39.691Z,94.80
2022-12-14T19:38:08.278Z,94.90
2022-12-14T19:40:36.311Z,94.90
2022-12-14T19:43:05.655Z,94.80
2022-12-14T19:45:33.650Z,94.80
2022-12-14T19:48:01.778Z,94.80
2022-12-14T19:50:29.791Z,95.20
2022-12-14T19:52:57.826Z,95.10
2022-12-14T19:55:25.826Z,94.90
2022-12-14T19:57:53.858Z,94.90
2022-12-14T20:00:23.324Z,94.80
2022-12-14T20:02:51.439Z,94.80
2022-12-14T20:05:21.560Z,94.70
2022-12-14T20:07:49.569Z,94.90
2022-12-14T20:10:17.643Z,95.10
2022-12-14T20:12:45.734Z,95.20
2022-12-14T20:15:13.978Z,95.00
2022-12-14T20:17:43.311Z,94.80
2022-12-14T20:20:12.346Z,94.80
2022-12-14T20:22:40.599Z,94.70
2022-12-14T20:25:09.167Z,94.70
2022-12-14T20:27:40.672Z,94.70
2022-12-14T20:30:10.435Z,94.70
2022-12-14T20:32:40.635Z,94.80
2022-12-14T20:35:11.936Z,94.90
2022-12-14T20:37:39.895Z,95.00
2022-12-14T20:40:09.449Z,95.00
2022-12-14T20:42:37.500Z,94.90
2022-12-14T20:45:07.405Z,94.90
2022-12-14T20:47:35.695Z,95.30
2022-12-14T20:50:03.850Z,95.00
2022-12-14T20:52:33.201Z,94.70
2022-12-14T20:55:01.211Z,94.60
2022-12-14T20:57:32.973Z,94.50
2022-12-14T21:00:01.114Z,94.80
2022-12-14T21:02:29.252Z,94.80
2022-12-14T21:04:57.446Z,95.00
2022-12-14T21:07:26.507Z,95.00
2022-12-14T21:09:55.965Z,95.10
2022-12-14T21:12:23.064Z,95.10
2022-12-14T21:14:53.786Z,94.80
2022-12-14T21:17:23.366Z,94.60
2022-12-14T21:19:52.115Z,94.70
2022-12-14T21:22:22.679Z,95.00
2022-12-14T21:25:06.900Z,94.90
2022-12-14T21:27:39.261Z,94.90
2022-12-14T21:30:10.031Z,95.00
2022-12-14T21:32:38.941Z,94.90
2022-12-14T21:35:08.029Z,94.90
2022-12-14T21:37:38.877Z,94.80
2022-12-14T21:40:08.591Z,94.90
2022-12-14T21:42:36.948Z,94.80
2022-12-14T21:45:05.824Z,95.10
2022-12-14T21:47:34.586Z,94.80
2022-12-14T21:50:02.593Z,94.70
2022-12-14T21:52:30.846Z,94.70
2022-12-14T21:54:59.740Z,94.50
2022-12-14T21:57:50.542Z,94.40
2022-12-14T22:00:20.713Z,94.40
2022-12-14T22:02:48.992Z,94.50
2022-12-14T22:05:17.313Z,94.50
2022-12-14T22:07:45.600Z,94.40
2022-12-14T22:10:13.651Z,94.80
2022-12-14T22:12:41.679Z,94.60
2022-12-14T22:15:11.091Z,94.60
2022-12-14T22:17:40.487Z,94.50
2022-12-14T22:20:09.733Z,94.70
2022-12-14T22:22:37.821Z,95.00
2022-12-14T22:25:06.607Z,95.00
2022-12-14T22:27:34.622Z,94.70
2022-12-14T22:30:05.190Z,94.50
2022-12-14T22:32:33.171Z,94.60
2022-12-14T22:35:02.888Z,94.90
2022-12-14T22:37:30.952Z,94.80
2022-12-14T22:39:59.019Z,94.70
2022-12-14T22:42:27.018Z,94.60
2022-12-14T22:44:55.267Z,95.00
2022-12-14T22:47:23.300Z,95.10
2022-12-14T22:49:51.385Z,95.10
2022-12-14T22:52:24.698Z,95.00
2022-12-14T22:54:54.311Z,94.90
2022-12-14T22:57:22.907Z,94.80
2022-12-14T22:59:57.233Z,94.80
2022-12-14T23:02:25.937Z,94.70
2022-12-14T23:04:54.135Z,94.70
2022-12-14T23:07:23.709Z,94.80
2022-12-14T23:10:09.440Z,94.70
2022-12-14T23:12:54.787Z,94.70
2022-12-14T23:15:40.343Z,94.70
2022-12-14T23:18:26.641Z,94.60
2022-12-14T23:21:13.036Z,94.60
2022-12-14T23:24:02.456Z,94.70
2022-12-14T23:26:48.749Z,94.90
2022-12-14T23:29:34.622Z,94.80
2022-12-14T23:32:20.022Z,94.80
2022-12-14T23:35:05.393Z,94.80
2022-12-14T23:37:51.440Z,94.80
2022-12-14T23:40:38.690Z,94.90
2022-12-14T23:43:28.476Z,95.00
2022-12-14T23:46:14.369Z,95.00
2022-12-14T23:48:59.945Z,95.10
2022-12-14T23:51:45.453Z,95.20
2022-12-14T23:54:31.396Z,95.10
2022-12-14T23:57:18.171Z,95.40
